Time;durP1;ratioP1;P1;durP2;ratioP2;P2;SDS_P1;SDS_P2;PMS_P1;PMS_P2;Temp;Humidity;BMP_temperature;BMP_pressure;BME280_temperature;BME280_humidity;BME280_pressure;Samples;Min_cycle;Max_cycle;Signal;HPM_P1;HPM_P2
2022/11/24 00:00:25;;;;;;;34.72;15.55;;;5.70;99.90;;;;;;5139931;24;20128;-79
2022/11/24 00:02:53;;;;;;;33.45;14.82;;;5.70;99.90;;;;;;4771697;30;20033;-77
2022/11/24 00:05:21;;;;;;;33.58;14.88;;;5.70;99.90;;;;;;4773148;30;20091;-77
2022/11/24 00:11:08;;;;;;;38.28;16.10;;;5.70;99.90;;;;;;5167367;24;20056;-77
2022/11/24 00:13:37;;;;;;;35.05;15.77;;;5.70;99.90;;;;;;4742195;30;20040;-77
2022/11/24 00:16:21;;;;;;;36.17;15.68;;;5.60;99.90;;;;;;4752808;30;20159;-77
2022/11/24 00:18:49;;;;;;;32.50;15.18;;;5.70;99.90;;;;;;4762586;30;20062;-77
2022/11/24 00:21:18;;;;;;;33.67;15.90;;;5.70;99.90;;;;;;4763670;30;20056;-77
2022/11/24 00:38:53;;;;;;;42.55;20.73;;;5.60;99.90;;;;;;4792828;29;20060;-78
2022/11/24 00:54:28;;;;;;;26.25;12.20;;;5.60;99.90;;;;;;5044678;24;20047;-76
2022/11/24 00:56:56;;;;;;;25.55;12.65;;;5.60;99.90;;;;;;4975281;24;20039;-78
2022/11/24 00:59:27;;;;;;;23.27;11.90;;;5.60;99.90;;;;;;5302916;24;20053;-78
2022/11/24 01:01:54;;;;;;;28.95;12.95;;;5.60;99.90;;;;;;4727150;29;1143402;-78
2022/11/24 01:04:24;;;;;;;24.30;11.43;;;5.60;99.90;;;;;;4783775;30;20491;-77
2022/11/24 01:07:27;;;;;;;26.75;10.75;;;5.60;99.90;;;;;;5326499;24;20378;-77
2022/11/24 01:09:55;;;;;;;26.17;11.05;;;5.60;99.90;;;;;;4795324;30;20061;-77
2022/11/24 01:19:00;;;;;;;36.33;14.82;;;5.60;99.90;;;;;;5291482;24;20028;-78
2022/11/24 02:02:44;;;;;;;44.80;15.00;;;5.60;99.90;;;;;;5836497;24;20030;31
2022/11/24 03:23:07;;;;;;;41.30;13.65;;;6.60;99.90;;;;;;5558485;24;20044;-78
2022/11/24 03:25:41;;;;;;;41.25;14.73;;;4.90;99.90;;;;;;4777549;30;20052;-78
2022/11/24 03:28:13;;;;;;;40.75;14.82;;;5.60;99.90;;;;;;4762866;30;20055;-77
2022/11/24 03:37:17;;;;;;;38.72;15.63;;;6.50;99.90;;;;;;5267592;24;20039;-77
2022/11/24 03:39:50;;;;;;;53.47;19.80;;;5.60;99.90;;;;;;4811125;24;20040;-77
2022/11/24 03:42:22;;;;;;;54.40;20.00;;;5.60;99.90;;;;;;4801423;29;20055;-77
2022/11/24 03:44:50;;;;;;;60.72;21.10;;;7.00;99.90;;;;;;4798024;29;20047;-77
2022/11/24 03:47:17;;;;;;;64.45;22.98;;;5.50;99.90;;;;;;4769043;30;20083;-77
2022/11/24 03:49:48;;;;;;;68.88;23.20;;;5.50;99.90;;;;;;4772191;30;20039;-77
2022/11/24 03:52:19;;;;;;;62.42;21.77;;;5.50;99.90;;;;;;4776376;30;20149;-77
2022/11/24 03:55:10;;;;;;;63.92;22.98;;;5.50;99.90;;;;;;4760481;30;20128;-77
2022/11/24 03:57:48;;;;;;;69.10;25.90;;;5.40;99.90;;;;;;4722385;30;20125;-77
2022/11/24 04:00:25;;;;;;;70.80;24.00;;;5.40;99.90;;;;;;4799111;24;20119;-78
2022/11/24 04:03:07;;;;;;;66.45;24.13;;;5.50;99.90;;;;;;4753466;30;20052;-77
2022/11/24 04:05:43;;;;;;;64.10;23.00;;;5.40;99.90;;;;;;4753014;30;20112;-78
2022/11/24 04:08:10;;;;;;;67.85;26.20;;;5.40;99.90;;;;;;4759152;30;20163;-78
2022/11/24 04:10:39;;;;;;;65.28;24.95;;;5.10;99.90;;;;;;4765742;30;20032;-78
2022/11/24 04:13:15;;;;;;;60.90;23.15;;;5.40;99.90;;;;;;4748344;30;20063;-78
2022/11/24 04:15:45;;;;;;;62.60;25.10;;;5.40;99.90;;;;;;4779991;30;20048;-78
2022/11/24 04:18:13;;;;;;;65.93;24.05;;;5.60;99.90;;;;;;4772028;30;20039;-78
2022/11/24 04:20:41;;;;;;;62.45;24.55;;;5.30;99.90;;;;;;4765729;30;20037;-77
2022/11/24 04:23:11;;;;;;;67.68;24.52;;;5.60;99.90;;;;;;4751070;30;20044;-78
2022/11/24 04:25:41;;;;;;;67.20;22.13;;;5.30;99.90;;;;;;4744308;30;20045;-78
2022/11/24 04:28:11;;;;;;;70.18;26.10;;;5.30;99.90;;;;;;4765034;30;20053;-78
2022/11/24 04:30:43;;;;;;;73.68;24.17;;;5.30;99.90;;;;;;4733434;30;20057;-78
2022/11/24 04:33:12;;;;;;;75.75;26.85;;;5.30;99.90;;;;;;4740228;30;20080;-78
2022/11/24 04:35:42;;;;;;;68.22;26.00;;;5.30;99.90;;;;;;4761854;30;20116;-78
2022/11/24 04:38:16;;;;;;;64.07;24.35;;;5.30;99.90;;;;;;4758687;30;20103;-78
2022/11/24 04:41:13;;;;;;;65.32;22.50;;;5.30;99.90;;;;;;4756516;30;20048;-78
2022/11/24 04:43:40;;;;;;;69.32;26.90;;;5.30;99.90;;;;;;4754638;30;20042;-78
2022/11/24 04:46:16;;;;;;;66.43;26.55;;;5.30;99.90;;;;;;4754507;30;20074;-78
2022/11/24 04:49:18;;;;;;;63.95;25.38;;;5.30;99.90;;;;;;4714403;30;20058;-78
2022/11/24 04:51:51;;;;;;;64.13;23.20;;;5.30;99.90;;;;;;4693104;30;20053;-78
2022/11/24 04:54:21;;;;;;;67.07;25.50;;;4.70;99.90;;;;;;4687831;30;20045;-78
2022/11/24 04:56:51;;;;;;;64.18;24.13;;;5.30;99.90;;;;;;4696492;30;20057;-78
2022/11/24 04:59:52;;;;;;;61.50;22.45;;;5.30;99.90;;;;;;5004734;24;20063;-78
2022/11/24 05:02:23;;;;;;;64.17;23.23;;;5.20;99.90;;;;;;4744400;30;20067;-78
2022/11/24 05:04:50;;;;;;;66.10;25.42;;;5.30;99.90;;;;;;4745949;30;20060;-78
2022/11/24 05:07:19;;;;;;;68.40;24.38;;;5.20;99.90;;;;;;4730856;30;20076;-78
2022/11/24 05:12:33;;;;;;;80.30;27.38;;;5.30;99.90;;;;;;4746681;30;20087;-78
2022/11/24 05:15:03;;;;;;;66.75;24.08;;;5.30;99.90;;;;;;4718038;30;20057;-78
2022/11/24 05:17:33;;;;;;;63.05;22.95;;;5.20;99.90;;;;;;4732125;30;20048;-78
2022/11/24 05:20:00;;;;;;;64.25;23.48;;;5.20;99.90;;;;;;4725799;30;20064;-78
2022/11/24 05:22:28;;;;;;;70.15;25.23;;;5.30;99.90;;;;;;4738881;30;20068;-78
2022/11/24 05:24:58;;;;;;;69.57;23.83;;;5.20;99.90;;;;;;4719661;30;20044;-78
2022/11/24 05:27:26;;;;;;;63.20;23.23;;;5.20;99.90;;;;;;4735220;30;20150;-78
2022/11/24 05:29:53;;;;;;;73.00;23.48;;;5.20;99.90;;;;;;4718529;30;20048;-78
2022/11/24 05:32:20;;;;;;;64.32;24.08;;;5.20;99.90;;;;;;4721964;30;20047;-78
2022/11/24 05:34:47;;;;;;;71.20;25.42;;;5.20;99.90;;;;;;4713808;30;20080;-78
2022/11/24 05:37:14;;;;;;;66.82;23.88;;;5.20;99.90;;;;;;4713743;30;20079;-78
2022/11/24 05:39:42;;;;;;;66.60;24.50;;;5.20;99.90;;;;;;4733576;30;20456;-78
2022/11/24 05:44:56;;;;;;;76.93;25.27;;;5.20;99.90;;;;;;4729867;30;20048;-77
2022/11/24 05:47:23;;;;;;;69.72;25.10;;;6.30;99.90;;;;;;4715406;30;20152;-78
2022/11/24 05:49:50;;;;;;;68.70;24.98;;;4.60;99.90;;;;;;4736881;30;20386;-78
2022/11/24 05:52:17;;;;;;;78.03;26.08;;;5.20;99.90;;;;;;4715070;30;20052;-78
2022/11/24 05:54:45;;;;;;;68.38;23.50;;;5.90;99.90;;;;;;4713646;30;20151;-78
2022/11/24 05:57:12;;;;;;;73.93;28.98;;;5.20;99.90;;;;;;4725663;30;20052;-78
2022/11/24 05:59:39;;;;;;;73.93;26.55;;;5.10;99.90;;;;;;4733259;30;20048;-78
2022/11/24 06:02:06;;;;;;;72.38;24.38;;;5.30;99.90;;;;;;4732258;30;20060;-78
2022/11/24 06:04:34;;;;;;;76.75;26.45;;;5.20;99.90;;;;;;4720105;30;20045;-77
2022/11/24 06:07:01;;;;;;;67.97;25.40;;;5.20;99.90;;;;;;4714231;30;20057;-78
2022/11/24 06:09:29;;;;;;;74.38;26.17;;;5.60;99.90;;;;;;4717875;30;20057;-78
2022/11/24 06:11:56;;;;;;;69.38;22.77;;;5.10;99.90;;;;;;4720922;30;20544;-77
2022/11/24 06:14:23;;;;;;;73.07;24.17;;;5.20;99.90;;;;;;4724780;30;20118;-77
2022/11/24 06:16:50;;;;;;;77.63;24.42;;;5.30;99.90;;;;;;4712987;30;20106;-77
2022/11/24 06:19:17;;;;;;;78.38;25.42;;;5.60;99.90;;;;;;4708922;30;20190;-77
2022/11/24 06:21:44;;;;;;;74.13;25.48;;;5.20;99.90;;;;;;4728356;30;20620;-77
2022/11/24 06:24:11;;;;;;;78.03;27.17;;;5.20;99.90;;;;;;4721624;30;20053;-77
2022/11/24 06:26:39;;;;;;;79.30;26.67;;;5.20;99.90;;;;;;4706325;30;20128;-77
2022/11/24 06:29:07;;;;;;;76.35;25.33;;;5.10;99.90;;;;;;4713594;30;20056;-77
2022/11/24 06:31:34;;;;;;;71.47;24.67;;;5.20;99.90;;;;;;4725925;30;20460;-77
2022/11/24 06:34:06;;;;;;;72.63;24.27;;;5.30;99.90;;;;;;4728809;30;20057;-77
2022/11/24 06:36:33;;;;;;;80.43;26.15;;;5.20;99.90;;;;;;4707745;30;20087;-77
2022/11/24 06:39:01;;;;;;;79.50;26.08;;;5.50;99.90;;;;;;4714794;30;20052;-77
2022/11/24 06:41:28;;;;;;;76.07;25.40;;;5.20;99.90;;;;;;4706423;30;20561;-77
2022/11/24 06:43:55;;;;;;;74.40;25.70;;;5.30;99.90;;;;;;4713272;30;20045;-77
2022/11/24 06:46:23;;;;;;;69.10;24.65;;;5.40;99.90;;;;;;4726818;30;20062;-77
2022/11/24 06:48:51;;;;;;;78.30;25.02;;;5.30;99.90;;;;;;4719373;30;20041;-77
2022/11/24 06:51:18;;;;;;;68.45;24.35;;;5.30;99.90;;;;;;4713204;30;20445;-77
2022/11/24 06:53:46;;;;;;;78.18;24.95;;;5.30;99.90;;;;;;4709117;30;20049;-77
2022/11/24 06:56:14;;;;;;;68.35;23.88;;;5.60;99.90;;;;;;4708378;30;20059;-77
2022/11/24 06:58:48;;;;;;;71.72;24.52;;;5.30;99.90;;;;;;4714406;30;20066;-77
2022/11/24 07:01:20;;;;;;;71.22;24.10;;;5.40;99.90;;;;;;4715635;30;20541;-77
2022/11/24 07:03:48;;;;;;;;;;;5.40;99.90;;;;;;4739517;30;20651;-77
2022/11/24 07:06:16;;;;;;;70.45;24.40;;;5.40;99.90;;;;;;4740126;30;20511;-77
2022/11/24 08:00:59;;;;;;;46.95;18.52;;;5.60;99.90;;;;;;4892664;24;20313;-87
2022/11/24 08:04:49;;;;;;;42.70;16.27;;;5.70;99.90;;;;;;4737736;30;20041;-88
2022/11/24 08:28:44;;;;;;;48.87;17.70;;;5.80;99.90;;;;;;5819579;24;20030;31
2022/11/24 08:38:35;;;;;;;45.97;17.38;;;5.90;99.90;;;;;;5528301;24;20037;31
2022/11/24 08:44:35;;;;;;;45.58;15.63;;;6.00;99.90;;;;;;5503628;24;20071;-77
2022/11/24 08:47:08;;;;;;;47.15;17.73;;;5.90;99.90;;;;;;4770451;30;20071;-77
2022/11/24 08:49:52;;;;;;;44.03;16.73;;;5.90;99.90;;;;;;5331040;24;20050;-78
2022/11/24 09:14:29;;;;;;;50.13;18.55;;;6.20;99.90;;;;;;5815478;24;20026;31
2022/11/24 10:55:05;;;;;;;39.83;15.05;;;6.70;99.90;;;;;;4745285;30;20045;-79
2022/11/24 10:58:24;;;;;;;35.70;14.52;;;6.60;99.90;;;;;;4887104;24;20057;-78
2022/11/24 11:01:38;;;;;;;34.38;12.85;;;7.20;99.90;;;;;;5224867;24;20059;-77
2022/11/24 11:04:38;;;;;;;36.95;13.70;;;6.80;99.90;;;;;;4701436;30;20072;-77
2022/11/24 11:07:25;;;;;;;43.63;16.60;;;6.80;99.90;;;;;;4718462;30;20064;-78
2022/11/24 11:10:25;;;;;;;38.65;15.93;;;6.80;99.90;;;;;;4797557;24;20074;-79
2022/11/24 11:16:57;;;;;;;45.33;18.98;;;7.00;99.90;;;;;;4778828;24;20059;31
2022/11/24 11:20:05;;;;;;;50.83;19.80;;;7.10;99.90;;;;;;4812810;24;19953;-78
2022/11/24 11:37:36;;;;;;;35.65;13.07;;;7.50;99.90;;;;;;1250135;24;20248;-78
2022/11/24 11:47:45;;;;;;;33.17;13.50;;;7.70;99.90;;;;;;5083782;24;20034;31
2022/11/24 11:54:40;;;;;;;29.00;14.43;;;7.60;99.90;;;;;;5016068;24;20060;-78
2022/11/24 11:57:48;;;;;;;33.78;13.68;;;7.80;99.90;;;;;;5101519;24;20060;-79
2022/11/24 12:00:20;;;;;;;36.17;13.20;;;7.90;99.90;;;;;;4912499;24;20052;-78
2022/11/24 12:38:22;;;;;;;31.50;12.35;;;7.80;99.90;;;;;;1622643;24;20221;-80
2022/11/24 12:55:21;;;;;;;30.42;15.32;;;7.80;99.90;;;;;;5524602;24;19909;-79
2022/11/24 13:29:24;;;;;;;23.25;10.75;;;7.40;99.90;;;;;;1674871;24;20332;-80
2022/11/24 13:32:18;;;;;;;23.30;9.77;;;7.00;99.90;;;;;;4776514;30;20048;-78
2022/11/24 13:34:53;;;;;;;61.42;25.25;;;7.50;99.90;;;;;;4770714;30;20048;-78
2022/11/24 13:37:53;;;;;;;69.93;30.65;;;6.10;99.90;;;;;;4802740;24;20043;-78
2022/11/24 13:41:13;;;;;;;29.17;14.52;;;7.50;99.90;;;;;;4808693;29;20047;-77
2022/11/24 13:45:07;;;;;;;22.58;12.77;;;7.40;99.90;;;;;;4799108;24;20057;-77
2022/11/24 13:48:42;;;;;;;34.53;17.10;;;7.20;99.90;;;;;;5422615;24;20045;31
2022/11/24 13:51:25;;;;;;;23.60;10.05;;;7.30;99.90;;;;;;4775231;30;20767;-79
2022/11/24 15:17:21;;;;;;;27.35;12.95;;;7.00;99.90;;;;;;4711929;30;20080;-78
2022/11/24 15:19:54;;;;;;;25.70;13.07;;;6.90;99.90;;;;;;4719171;30;20080;-78
2022/11/24 15:22:43;;;;;;;25.17;10.43;;;6.80;99.90;;;;;;4708793;30;20081;-78
2022/11/24 15:25:33;;;;;;;24.50;10.43;;;6.80;99.90;;;;;;4722626;30;20053;-78
2022/11/24 15:28:01;;;;;;;20.38;10.45;;;6.90;99.90;;;;;;4709504;30;20086;-78
2022/11/24 15:30:29;;;;;;;31.02;14.68;;;6.80;99.90;;;;;;4681078;30;20066;-79
2022/11/24 15:33:00;;;;;;;28.80;15.05;;;6.70;99.90;;;;;;4652621;30;20458;-78
2022/11/24 15:35:31;;;;;;;27.98;13.52;;;6.80;99.90;;;;;;4659884;30;20066;-78
2022/11/24 15:37:59;;;;;;;24.98;11.38;;;6.70;99.90;;;;;;4666522;30;20522;-78
2022/11/24 15:40:27;;;;;;;26.92;11.95;;;6.60;99.90;;;;;;4679130;30;20061;-79
2022/11/24 15:43:00;;;;;;;26.83;12.05;;;6.60;99.90;;;;;;4669594;30;20054;-78
2022/11/24 15:45:33;;;;;;;68.47;28.05;;;6.90;99.90;;;;;;4657947;30;20133;-79
2022/11/24 15:48:00;;;;;;;36.75;13.65;;;6.70;99.90;;;;;;4684624;30;20083;-78
2022/11/24 15:50:29;;;;;;;50.58;24.58;;;6.60;99.90;;;;;;4668037;30;20047;-78
2022/11/24 15:52:57;;;;;;;39.63;17.67;;;6.70;99.90;;;;;;4669492;30;20055;-78
2022/11/24 15:55:31;;;;;;;44.08;19.27;;;6.60;99.90;;;;;;4675316;30;20047;-79
2022/11/24 15:58:05;;;;;;;27.95;14.60;;;5.80;99.90;;;;;;4663480;30;20059;-78
2022/11/24 16:00:49;;;;;;;30.90;13.90;;;6.50;99.90;;;;;;4683445;30;20060;-78
2022/11/24 16:03:18;;;;;;;33.63;15.32;;;6.60;99.90;;;;;;4709193;30;20073;-79
2022/11/24 16:06:20;;;;;;;32.55;15.18;;;5.20;99.90;;;;;;4698563;30;20080;-78
2022/11/24 16:08:52;;;;;;;27.25;11.75;;;6.40;99.90;;;;;;4696722;30;20534;-79
2022/11/24 16:11:27;;;;;;;33.78;14.85;;;6.40;99.90;;;;;;4689789;30;20060;-79
2022/11/24 16:13:54;;;;;;;32.92;14.07;;;6.40;99.90;;;;;;4693702;30;20079;-79
2022/11/24 16:16:25;;;;;;;28.08;11.65;;;6.40;99.90;;;;;;4708434;30;20104;-79
2022/11/24 16:18:53;;;;;;;26.50;11.70;;;5.90;99.90;;;;;;4673110;30;20082;-79
2022/11/24 16:21:22;;;;;;;30.58;13.00;;;6.30;99.90;;;;;;4665561;30;20062;-79
2022/11/24 16:23:49;;;;;;;33.83;14.63;;;6.30;99.90;;;;;;4668151;30;20062;-78
2022/11/24 16:26:17;;;;;;;30.02;14.00;;;6.30;99.90;;;;;;4667515;30;20600;-79
2022/11/24 16:28:57;;;;;;;28.67;13.35;;;6.20;99.90;;;;;;4673193;30;20098;-79
2022/11/24 16:31:28;;;;;;;57.90;23.65;;;6.20;99.90;;;;;;4654545;30;20070;-79
2022/11/24 16:33:56;;;;;;;39.30;15.77;;;6.20;99.90;;;;;;4652756;30;20055;-79
2022/11/24 16:36:27;;;;;;;43.58;17.65;;;6.10;99.90;;;;;;4656154;30;20055;-79
2022/11/24 16:38:58;;;;;;;35.60;15.65;;;6.10;99.90;;;;;;4644900;30;20050;-79
2022/11/24 16:41:42;;;;;;;31.77;13.57;;;6.10;99.90;;;;;;4656732;30;20051;-79
2022/11/24 16:44:12;;;;;;;36.22;14.40;;;6.10;99.90;;;;;;4661175;30;20050;-79
2022/11/24 16:46:45;;;;;;;51.45;20.42;;;6.00;99.90;;;;;;4666605;30;20056;-79
2022/11/24 16:49:14;;;;;;;36.20;15.95;;;7.10;99.90;;;;;;4647311;30;20047;-79
2022/11/24 16:51:50;;;;;;;36.47;14.52;;;6.00;99.90;;;;;;4654956;30;20058;-79
2022/11/24 16:54:21;;;;;;;48.88;24.13;;;6.00;99.90;;;;;;4680824;30;20043;-78
2022/11/24 16:56:48;;;;;;;39.38;18.30;;;6.00;99.90;;;;;;4659538;30;20062;-78
2022/11/24 16:59:17;;;;;;;35.08;15.65;;;6.00;99.90;;;;;;4679876;30;20056;-78
2022/11/24 17:01:49;;;;;;;36.17;16.23;;;5.90;99.90;;;;;;4693181;30;20084;-78
2022/11/24 17:04:16;;;;;;;91.95;33.03;;;5.90;99.90;;;;;;4712328;30;20053;-78
2022/11/24 17:06:44;;;;;;;70.50;27.48;;;5.90;99.90;;;;;;4708253;30;20052;-78
2022/11/24 17:09:11;;;;;;;64.93;21.33;;;5.90;99.90;;;;;;4712287;30;20080;-78
2022/11/24 17:11:38;;;;;;;66.32;21.60;;;5.90;99.90;;;;;;4707407;30;20119;-78
2022/11/24 17:14:09;;;;;;;61.92;22.38;;;5.90;99.90;;;;;;4704158;30;20505;-78
2022/11/24 17:16:37;;;;;;;46.42;17.83;;;5.80;99.90;;;;;;4686329;30;20522;-78
2022/11/24 17:19:08;;;;;;;63.10;21.70;;;5.80;99.90;;;;;;4687346;30;20061;-78
2022/11/24 17:21:36;;;;;;;46.08;17.55;;;4.80;99.90;;;;;;4721536;30;20065;-78
2022/11/24 17:24:05;;;;;;;51.13;18.60;;;5.80;99.90;;;;;;4712079;30;20061;-78
2022/11/24 17:26:35;;;;;;;59.00;21.83;;;5.80;99.90;;;;;;4702199;30;20088;-78
2022/11/24 17:29:02;;;;;;;62.15;21.15;;;5.80;99.90;;;;;;4706391;30;20041;-78
2022/11/24 17:31:31;;;;;;;49.00;19.67;;;5.70;99.90;;;;;;4704333;30;20049;-78
2022/11/24 17:34:00;;;;;;;55.72;18.92;;;5.70;99.90;;;;;;4699831;30;20053;-78
2022/11/24 17:36:29;;;;;;;58.90;22.52;;;5.70;99.90;;;;;;4687726;30;20147;-78
2022/11/24 17:38:59;;;;;;;47.80;17.92;;;5.60;99.90;;;;;;4707658;30;20092;-78
2022/11/24 17:41:26;;;;;;;43.17;17.08;;;5.70;99.90;;;;;;4700223;30;20529;-78
2022/11/24 17:43:55;;;;;;;61.28;24.48;;;5.70;99.90;;;;;;4694333;30;20113;-78
2022/11/24 17:46:27;;;;;;;48.33;20.05;;;5.60;99.90;;;;;;4680066;30;20053;-78
2022/11/24 17:48:57;;;;;;;41.88;19.05;;;5.60;99.90;;;;;;4711003;30;20049;-78
2022/11/24 17:51:26;;;;;;;46.95;17.95;;;5.50;99.90;;;;;;4701368;30;20046;-78
2022/11/24 17:53:54;;;;;;;64.88;28.52;;;5.50;99.90;;;;;;4695165;30;20045;-78
2022/11/24 17:56:26;;;;;;;43.35;20.33;;;5.50;99.90;;;;;;4702031;30;20057;-78
2022/11/24 17:59:01;;;;;;;40.25;18.95;;;5.50;99.90;;;;;;4709581;30;20509;-78
2022/11/24 18:01:30;;;;;;;52.10;23.50;;;5.50;99.90;;;;;;4713792;30;20056;-78
2022/11/24 18:03:58;;;;;;;74.88;30.48;;;5.40;99.90;;;;;;4682279;30;20056;-78
2022/11/24 18:06:27;;;;;;;54.95;23.02;;;5.40;99.90;;;;;;4695384;30;20055;-78
2022/11/24 18:08:56;;;;;;;46.78;19.67;;;5.40;99.90;;;;;;4700330;30;20131;-78
2022/11/24 18:11:28;;;;;;;41.40;15.32;;;5.40;99.90;;;;;;4700248;30;20053;-78
2022/11/24 18:14:00;;;;;;;44.65;17.90;;;5.30;99.90;;;;;;4695651;30;20506;-78
2022/11/24 18:16:33;;;;;;;59.90;25.77;;;5.30;99.90;;;;;;4698678;30;20064;-78
2022/11/24 18:19:03;;;;;;;67.22;26.38;;;5.30;99.90;;;;;;4699195;30;20061;-78
2022/11/24 18:21:40;;;;;;;75.97;31.80;;;5.30;99.90;;;;;;4702090;30;20147;-78
2022/11/24 18:24:09;;;;;;;48.47;18.70;;;5.20;99.90;;;;;;4697030;30;20621;-78
2022/11/24 18:26:37;;;;;;;43.45;16.42;;;5.20;99.90;;;;;;4699687;30;20139;-78
2022/11/24 18:29:06;;;;;;;35.47;14.88;;;5.20;99.90;;;;;;4719738;30;21816;-78
2022/11/24 18:31:34;;;;;;;39.42;14.40;;;5.20;99.90;;;;;;4698925;30;20068;-78
2022/11/24 18:34:04;;;;;;;39.13;15.07;;;5.20;99.90;;;;;;4711556;30;20160;-78
2022/11/24 18:36:32;;;;;;;41.53;15.43;;;5.20;99.90;;;;;;4711467;30;20064;-78
2022/11/24 18:39:05;;;;;;;41.42;16.40;;;5.20;99.90;;;;;;4682749;30;20144;-78
2022/11/24 18:41:34;;;;;;;41.30;15.55;;;5.20;99.90;;;;;;4685108;30;20061;-78
2022/11/24 18:44:07;;;;;;;40.78;16.35;;;5.20;99.90;;;;;;4687260;30;20084;-78
2022/11/24 18:46:36;;;;;;;40.13;15.73;;;5.20;99.90;;;;;;4718039;30;20057;-78
2022/11/24 18:49:05;;;;;;;33.75;13.07;;;5.20;99.90;;;;;;4704192;30;20052;-78
2022/11/24 18:54:21;;;;;;;50.33;19.30;;;5.20;99.90;;;;;;4774942;30;20100;-78
2022/11/24 18:56:50;;;;;;;32.65;13.80;;;5.20;99.90;;;;;;4766385;30;20036;-78
2022/11/24 18:59:18;;;;;;;37.03;13.98;;;5.30;99.90;;;;;;4777497;30;20044;-78
2022/11/24 19:01:48;;;;;;;38.15;14.18;;;5.30;99.90;;;;;;4762958;30;20158;-78
2022/11/24 19:04:16;;;;;;;28.77;11.48;;;5.30;99.90;;;;;;4777059;30;20059;-78
2022/11/24 19:06:45;;;;;;;33.30;12.25;;;5.30;99.90;;;;;;4768952;30;20095;-79
2022/11/24 19:09:14;;;;;;;35.78;12.60;;;5.30;99.90;;;;;;4753329;30;20029;-78
2022/11/24 19:11:45;;;;;;;35.47;11.88;;;5.30;99.90;;;;;;4735906;30;20520;-78
2022/11/24 19:14:17;;;;;;;31.38;12.55;;;5.20;99.90;;;;;;4768812;30;20050;-78
2022/11/24 19:17:05;;;;;;;37.85;13.00;;;5.20;99.90;;;;;;4748693;30;20204;-78
2022/11/24 19:19:38;;;;;;;53.40;20.25;;;5.20;99.90;;;;;;4731055;30;20053;-78
2022/11/24 19:22:14;;;;;;;32.80;12.63;;;5.00;99.90;;;;;;4732364;30;20045;-78
2022/11/24 19:24:45;;;;;;;36.00;14.00;;;5.20;99.90;;;;;;4711435;30;20068;-78
2022/11/24 19:27:17;;;;;;;31.42;13.02;;;5.20;99.90;;;;;;4712904;30;20079;-78
2022/11/24 19:29:46;;;;;;;31.58;12.02;;;5.10;99.90;;;;;;4724525;30;20060;-78
2022/11/24 19:32:13;;;;;;;27.95;10.65;;;5.10;99.90;;;;;;4695818;30;20058;-78
2022/11/24 19:34:44;;;;;;;32.67;14.88;;;5.10;99.90;;;;;;4716395;30;20025;-78
2022/11/24 19:37:27;;;;;;;33.65;13.35;;;5.10;99.90;;;;;;4714189;30;20061;-78
2022/11/24 19:39:56;;;;;;;36.53;13.38;;;5.10;99.90;;;;;;4715340;30;20076;-78
2022/11/24 19:42:26;;;;;;;30.42;11.93;;;5.10;99.90;;;;;;4724208;30;20489;-78
2022/11/24 19:44:53;;;;;;;33.58;11.55;;;5.20;99.90;;;;;;4724284;30;20069;-78
2022/11/24 19:47:22;;;;;;;32.60;12.55;;;5.10;99.90;;;;;;4708804;30;20082;-78
2022/11/24 19:49:50;;;;;;;29.08;12.40;;;5.10;99.90;;;;;;4726247;30;20056;-79
2022/11/24 19:52:17;;;;;;;36.13;14.50;;;5.00;99.90;;;;;;4739711;30;20098;-78
2022/11/24 19:54:45;;;;;;;54.83;23.50;;;5.00;99.90;;;;;;4722561;30;20079;-78
2022/11/24 19:57:16;;;;;;;42.60;17.65;;;4.90;99.90;;;;;;4727079;30;20053;-78
2022/11/24 19:59:45;;;;;;;58.80;27.92;;;4.90;99.90;;;;;;4715513;30;20075;-78
2022/11/24 20:02:13;;;;;;;71.35;37.72;;;4.80;99.90;;;;;;4734624;30;20056;-78
2022/11/24 20:04:41;;;;;;;61.95;26.55;;;4.80;99.90;;;;;;4719778;30;20103;-78
2022/11/24 20:07:23;;;;;;;59.97;23.10;;;4.80;99.90;;;;;;4740226;30;20052;-78
2022/11/24 20:09:50;;;;;;;51.58;17.88;;;4.80;99.90;;;;;;4743190;30;20087;-78
2022/11/24 20:12:18;;;;;;;42.78;17.55;;;4.80;99.90;;;;;;4741843;30;20060;-78
2022/11/24 20:14:46;;;;;;;44.95;16.00;;;4.80;99.90;;;;;;4733103;30;20952;-78
2022/11/24 20:17:13;;;;;;;38.17;16.60;;;4.80;99.90;;;;;;4725478;30;20465;-78
2022/11/24 20:19:47;;;;;;;42.17;16.13;;;4.70;99.90;;;;;;4741844;30;20064;-78
2022/11/24 20:22:15;;;;;;;55.50;18.90;;;4.70;99.90;;;;;;4741965;30;20083;-78
2022/11/24 20:24:44;;;;;;;50.90;18.80;;;4.70;99.90;;;;;;4745109;30;20056;-78
2022/11/24 20:27:12;;;;;;;38.55;14.75;;;4.70;99.90;;;;;;4753780;30;20131;-78
2022/11/24 20:29:40;;;;;;;43.22;16.15;;;4.70;99.90;;;;;;4741208;30;20044;-78
2022/11/24 20:32:18;;;;;;;41.22;16.27;;;4.70;99.90;;;;;;4735335;30;20136;-78
2022/11/24 20:34:48;;;;;;;;;;;4.80;99.90;;;;;;4744489;30;20064;-78
2022/11/24 20:37:15;;;;;;;37.55;14.38;;;4.80;99.90;;;;;;4725714;30;19934;-78
2022/11/24 20:39:43;;;;;;;39.53;13.57;;;4.70;99.90;;;;;;4731467;30;20734;-78
2022/11/24 20:42:13;;;;;;;37.70;14.20;;;4.70;99.90;;;;;;4747475;30;20076;-78
2022/11/24 20:44:41;;;;;;;38.58;13.52;;;4.70;99.90;;;;;;4746132;30;20048;-78
2022/11/24 20:47:12;;;;;;;43.00;16.50;;;4.70;99.90;;;;;;4735896;30;20071;-78
2022/11/24 20:49:39;;;;;;;45.15;16.10;;;4.70;99.90;;;;;;4744878;30;20048;-78
2022/11/24 20:52:07;;;;;;;41.38;15.95;;;4.70;99.90;;;;;;4748158;30;20052;-78
2022/11/24 20:54:38;;;;;;;36.95;13.18;;;4.70;99.90;;;;;;4739800;30;20062;-78
2022/11/24 20:57:05;;;;;;;40.58;14.85;;;4.70;99.90;;;;;;4709612;30;20080;-78
2022/11/24 20:59:36;;;;;;;41.28;15.38;;;4.70;99.90;;;;;;4736835;30;20057;-78
2022/11/24 21:02:04;;;;;;;42.38;15.57;;;4.70;99.90;;;;;;4713733;30;20087;-78
2022/11/24 21:04:33;;;;;;;43.38;16.25;;;4.60;99.90;;;;;;4729703;30;20063;-78
2022/11/24 21:07:02;;;;;;;42.92;15.35;;;4.60;99.90;;;;;;4722094;30;20065;-78
2022/11/24 21:09:31;;;;;;;40.30;14.35;;;4.70;99.90;;;;;;4743602;30;20117;-78
2022/11/24 21:12:05;;;;;;;36.55;13.80;;;4.70;99.90;;;;;;4694368;30;20057;-78
2022/11/24 21:14:32;;;;;;;38.53;15.30;;;4.80;99.90;;;;;;4731989;30;20049;-78
2022/11/24 21:17:01;;;;;;;40.65;14.07;;;4.70;99.90;;;;;;4707341;30;20049;-78
2022/11/24 21:19:28;;;;;;;37.50;12.95;;;4.70;99.90;;;;;;4704236;30;20608;-78
2022/11/24 21:21:55;;;;;;;38.58;13.43;;;4.70;99.90;;;;;;4717539;30;20053;-78
2022/11/24 21:24:22;;;;;;;37.53;14.30;;;4.70;99.90;;;;;;4705148;30;20052;-78
2022/11/24 21:26:51;;;;;;;37.45;13.88;;;4.70;99.90;;;;;;4739025;30;20048;-78
2022/11/24 21:29:22;;;;;;;36.33;15.10;;;4.70;99.90;;;;;;4730106;30;20052;-78
2022/11/24 21:31:49;;;;;;;36.65;16.52;;;4.60;99.90;;;;;;4746155;30;20048;-79
2022/11/24 21:34:18;;;;;;;38.90;16.48;;;4.70;99.90;;;;;;4743267;30;20064;-78
2022/11/24 21:36:45;;;;;;;42.65;17.33;;;4.60;99.90;;;;;;4740159;30;20143;-78
2022/11/24 21:39:13;;;;;;;59.78;24.15;;;4.60;99.90;;;;;;4735405;30;20060;-78
2022/11/24 21:41:41;;;;;;;50.20;20.95;;;4.60;99.90;;;;;;4739581;30;20114;-79
2022/11/24 21:44:10;;;;;;;55.80;22.25;;;4.60;99.90;;;;;;4738971;30;20041;-78
2022/11/24 21:46:38;;;;;;;46.67;20.77;;;4.60;99.90;;;;;;4723108;30;20512;-78
2022/11/24 21:49:15;;;;;;;55.42;18.92;;;4.60;99.90;;;;;;4748405;30;20101;-78
2022/11/24 21:51:42;;;;;;;56.15;23.08;;;4.50;99.90;;;;;;4749314;30;20066;-78
2022/11/24 21:54:09;;;;;;;50.47;20.02;;;4.50;99.90;;;;;;4747898;30;20062;-78
2022/11/24 21:56:36;;;;;;;41.40;16.30;;;4.50;99.90;;;;;;4736365;30;20048;-78
2022/11/24 21:59:03;;;;;;;46.45;16.40;;;4.50;99.90;;;;;;4733379;30;20501;-78
2022/11/24 22:01:30;;;;;;;41.08;15.45;;;4.40;99.90;;;;;;4737691;30;20053;-78
2022/11/24 22:03:57;;;;;;;43.58;15.63;;;4.40;99.90;;;;;;4723399;30;20063;-78
2022/11/24 22:06:24;;;;;;;45.78;16.30;;;4.40;99.90;;;;;;4736151;30;20079;-78
2022/11/24 22:08:51;;;;;;;47.17;16.70;;;4.40;99.90;;;;;;4724370;30;20060;-78
2022/11/24 22:11:20;;;;;;;48.88;16.75;;;4.30;99.90;;;;;;4749641;30;20560;-78
2022/11/24 22:13:49;;;;;;;52.75;16.73;;;4.30;99.90;;;;;;4734228;30;20084;-78
2022/11/24 22:16:23;;;;;;;46.03;16.20;;;4.30;99.90;;;;;;4731100;30;20056;-78
2022/11/24 22:18:51;;;;;;;55.60;19.75;;;4.30;99.90;;;;;;4731757;30;20573;-78
2022/11/24 22:21:24;;;;;;;44.58;16.35;;;4.20;99.90;;;;;;4724366;30;20048;-78
2022/11/24 22:23:51;;;;;;;54.03;17.42;;;4.30;99.90;;;;;;4741648;30;20048;-78
2022/11/24 22:26:20;;;;;;;45.47;15.40;;;4.40;99.90;;;;;;4746291;30;20051;-78
2022/11/24 22:28:49;;;;;;;44.85;15.05;;;4.30;99.90;;;;;;4744254;30;20068;-78
2022/11/24 22:31:21;;;;;;;52.28;16.88;;;4.20;99.90;;;;;;4718518;30;20060;-78
2022/11/24 22:33:50;;;;;;;54.00;18.08;;;4.20;99.90;;;;;;4727154;30;20049;-78
2022/11/24 22:36:19;;;;;;;86.78;24.92;;;4.20;99.90;;;;;;4721224;30;20478;-78